sensor_id;sensor_type;location;lat;lon;timestamp;temperature;humidity
72320;SHT30;60269;52.502;16.732;2023-04-03T00:03:28;-1.78;87.31
72320;SHT30;60269;52.502;16.732;2023-04-03T00:07:01;-1.75;86.86
72320;SHT30;60269;52.502;16.732;2023-04-03T00:10:34;-1.77;87.07
72320;SHT30;60269;52.502;16.732;2023-04-03T00:14:06;-1.82;87.13
72320;SHT30;60269;52.502;16.732;2023-04-03T00:17:38;-1.87;87.46
72320;SHT30;60269;52.502;16.732;2023-04-03T00:21:12;-1.92;87.92
72320;SHT30;60269;52.502;16.732;2023-04-03T00:24:44;-1.91;88.23
72320;SHT30;60269;52.502;16.732;2023-04-03T00:28:16;-1.99;88.63
72320;SHT30;60269;52.502;16.732;2023-04-03T00:31:48;-2.03;88.96
72320;SHT30;60269;52.502;16.732;2023-04-03T00:35:21;-2.01;88.76
72320;SHT30;60269;52.502;16.732;2023-04-03T00:38:53;-2.01;88.74
72320;SHT30;60269;52.502;16.732;2023-04-03T00:42:25;-2.15;88.94
72320;SHT30;60269;52.502;16.732;2023-04-03T00:45:58;-2.06;89.10
72320;SHT30;60269;52.502;16.732;2023-04-03T00:49:31;-2.10;89.15
72320;SHT30;60269;52.502;16.732;2023-04-03T00:53:04;-2.13;89.37
72320;SHT30;60269;52.502;16.732;2023-04-03T00:56:37;-2.09;89.20
72320;SHT30;60269;52.502;16.732;2023-04-03T01:00:13;-2.10;89.43
72320;SHT30;60269;52.502;16.732;2023-04-03T01:03:46;-2.21;90.04
72320;SHT30;60269;52.502;16.732;2023-04-03T01:07:22;-2.15;89.73
72320;SHT30;60269;52.502;16.732;2023-04-03T01:10:55;-2.16;89.82
72320;SHT30;60269;52.502;16.732;2023-04-03T01:14:27;-2.32;90.44
72320;SHT30;60269;52.502;16.732;2023-04-03T01:17:59;-2.36;90.87
72320;SHT30;60269;52.502;16.732;2023-04-03T01:25:23;-2.43;91.27
72320;SHT30;60269;52.502;16.732;2023-04-03T01:28:58;-2.42;91.17
72320;SHT30;60269;52.502;16.732;2023-04-03T01:32:30;-2.42;91.56
72320;SHT30;60269;52.502;16.732;2023-04-03T01:36:03;-2.36;91.37
72320;SHT30;60269;52.502;16.732;2023-04-03T01:39:36;-2.39;91.30
72320;SHT30;60269;52.502;16.732;2023-04-03T01:43:08;-2.52;91.67
72320;SHT30;60269;52.502;16.732;2023-04-03T01:46:39;-2.49;91.78
72320;SHT30;60269;52.502;16.732;2023-04-03T01:50:13;-2.47;91.84
72320;SHT30;60269;52.502;16.732;2023-04-03T01:53:45;-2.56;92.03
72320;SHT30;60269;52.502;16.732;2023-04-03T01:57:17;-2.56;92.03
72320;SHT30;60269;52.502;16.732;2023-04-03T02:00:49;-2.58;92.23
72320;SHT30;60269;52.502;16.732;2023-04-03T02:04:21;-2.58;92.46
72320;SHT30;60269;52.502;16.732;2023-04-03T02:07:53;-2.58;92.19
72320;SHT30;60269;52.502;16.732;2023-04-03T02:11:25;-2.73;92.86
72320;SHT30;60269;52.502;16.732;2023-04-03T02:14:57;-2.68;92.61
72320;SHT30;60269;52.502;16.732;2023-04-03T02:18:29;-2.70;92.91
72320;SHT30;60269;52.502;16.732;2023-04-03T02:22:02;-2.74;92.73
72320;SHT30;60269;52.502;16.732;2023-04-03T02:25:35;-2.80;93.16
72320;SHT30;60269;52.502;16.732;2023-04-03T02:29:09;-2.87;93.57
72320;SHT30;60269;52.502;16.732;2023-04-03T02:32:42;-2.80;93.57
72320;SHT30;60269;52.502;16.732;2023-04-03T02:36:14;-2.63;93.31
72320;SHT30;60269;52.502;16.732;2023-04-03T02:39:46;-2.68;92.91
72320;SHT30;60269;52.502;16.732;2023-04-03T02:43:18;-2.77;93.09
72320;SHT30;60269;52.502;16.732;2023-04-03T02:46:50;-2.70;93.17
72320;SHT30;60269;52.502;16.732;2023-04-03T02:50:22;-2.73;93.19
72320;SHT30;60269;52.502;16.732;2023-04-03T02:53:55;-2.73;93.10
72320;SHT30;60269;52.502;16.732;2023-04-03T02:57:26;-2.71;93.01
72320;SHT30;60269;52.502;16.732;2023-04-03T03:00:59;-2.74;93.18
72320;SHT30;60269;52.502;16.732;2023-04-03T03:04:30;-2.74;93.34
72320;SHT30;60269;52.502;16.732;2023-04-03T03:08:03;-2.92;93.67
72320;SHT30;60269;52.502;16.732;2023-04-03T03:11:35;-3.02;94.24
72320;SHT30;60269;52.502;16.732;2023-04-03T03:15:07;-3.04;94.67
72320;SHT30;60269;52.502;16.732;2023-04-03T03:18:39;-3.13;94.63
72320;SHT30;60269;52.502;16.732;2023-04-03T03:22:11;-3.20;95.11
72320;SHT30;60269;52.502;16.732;2023-04-03T03:25:43;-3.28;95.10
72320;SHT30;60269;52.502;16.732;2023-04-03T03:29:15;-3.25;95.18
72320;SHT30;60269;52.502;16.732;2023-04-03T03:32:47;-3.22;95.01
72320;SHT30;60269;52.502;16.732;2023-04-03T03:36:19;-3.20;95.20
72320;SHT30;60269;52.502;16.732;2023-04-03T03:39:52;-3.25;94.83
72320;SHT30;60269;52.502;16.732;2023-04-03T03:43:24;-3.26;95.14
72320;SHT30;60269;52.502;16.732;2023-04-03T03:46:56;-3.28;95.07
72320;SHT30;60269;52.502;16.732;2023-04-03T03:50:28;-3.28;95.11
72320;SHT30;60269;52.502;16.732;2023-04-03T03:54:00;-3.22;95.03
72320;SHT30;60269;52.502;16.732;2023-04-03T03:57:32;-3.23;94.85
72320;SHT30;60269;52.502;16.732;2023-04-03T04:01:05;-3.19;94.73
72320;SHT30;60269;52.502;16.732;2023-04-03T04:04:39;-3.23;94.78
72320;SHT30;60269;52.502;16.732;2023-04-03T04:08:11;-3.25;94.54
72320;SHT30;60269;52.502;16.732;2023-04-03T04:11:43;-3.06;94.86
72320;SHT30;60269;52.502;16.732;2023-04-03T04:15:17;-3.12;94.39
72320;SHT30;60269;52.502;16.732;2023-04-03T04:18:50;-2.92;94.02
72320;SHT30;60269;52.502;16.732;2023-04-03T04:22:22;-3.05;93.96
72320;SHT30;60269;52.502;16.732;2023-04-03T04:25:54;-2.99;93.71
72320;SHT30;60269;52.502;16.732;2023-04-03T04:29:27;-2.94;93.40
72320;SHT30;60269;52.502;16.732;2023-04-03T04:32:59;-2.87;93.15
72320;SHT30;60269;52.502;16.732;2023-04-03T04:36:31;-2.87;92.90
72320;SHT30;60269;52.502;16.732;2023-04-03T04:40:05;-2.85;92.82
72320;SHT30;60269;52.502;16.732;2023-04-03T04:43:37;-2.81;92.70
72320;SHT30;60269;52.502;16.732;2023-04-03T04:47:09;-2.70;92.42
72320;SHT30;60269;52.502;16.732;2023-04-03T04:50:42;-2.64;92.29
72320;SHT30;60269;52.502;16.732;2023-04-03T04:54:14;-2.56;91.92
72320;SHT30;60269;52.502;16.732;2023-04-03T04:57:46;-2.56;92.05
72320;SHT30;60269;52.502;16.732;2023-04-03T05:01:18;-2.58;92.31
72320;SHT30;60269;52.502;16.732;2023-04-03T05:04:50;-2.49;92.17
72320;SHT30;60269;52.502;16.732;2023-04-03T05:08:24;-2.43;91.99
72320;SHT30;60269;52.502;16.732;2023-04-03T05:11:56;-2.33;91.74
72320;SHT30;60269;52.502;16.732;2023-04-03T05:15:28;-2.30;91.60
72320;SHT30;60269;52.502;16.732;2023-04-03T05:19:03;-2.23;91.46
72320;SHT30;60269;52.502;16.732;2023-04-03T05:22:35;-2.13;91.08
72320;SHT30;60269;52.502;16.732;2023-04-03T05:26:07;-2.06;90.80
72320;SHT30;60269;52.502;16.732;2023-04-03T05:29:39;-1.88;90.25
72320;SHT30;60269;52.502;16.732;2023-04-03T05:33:12;-1.79;89.61
72320;SHT30;60269;52.502;16.732;2023-04-03T05:36:45;-1.68;89.07
72320;SHT30;60269;52.502;16.732;2023-04-03T05:40:18;-1.43;88.37
72320;SHT30;60269;52.502;16.732;2023-04-03T05:43:50;-1.19;87.57
72320;SHT30;60269;52.502;16.732;2023-04-03T05:47:22;-0.88;86.54
72320;SHT30;60269;52.502;16.732;2023-04-03T05:50:55;-0.54;85.54
72320;SHT30;60269;52.502;16.732;2023-04-03T05:54:29;-0.45;85.03
72320;SHT30;60269;52.502;16.732;2023-04-03T05:58:01;-0.37;84.90
72320;SHT30;60269;52.502;16.732;2023-04-03T06:01:34;-0.17;84.40
72320;SHT30;60269;52.502;16.732;2023-04-03T06:05:08;0.05;83.06
72320;SHT30;60269;52.502;16.732;2023-04-03T06:08:40;0.37;80.94
72320;SHT30;60269;52.502;16.732;2023-04-03T06:12:12;0.81;79.20
72320;SHT30;60269;52.502;16.732;2023-04-03T06:15:45;1.23;77.17
72320;SHT30;60269;52.502;16.732;2023-04-03T06:19:18;1.75;75.59
72320;SHT30;60269;52.502;16.732;2023-04-03T06:22:50;2.18;74.33
72320;SHT30;60269;52.502;16.732;2023-04-03T06:26:22;2.44;72.84
72320;SHT30;60269;52.502;16.732;2023-04-03T06:29:54;2.56;71.21
72320;SHT30;60269;52.502;16.732;2023-04-03T06:33:27;2.83;70.84
72320;SHT30;60269;52.502;16.732;2023-04-03T06:36:59;3.09;69.25
72320;SHT30;60269;52.502;16.732;2023-04-03T06:40:31;3.23;69.57
72320;SHT30;60269;52.502;16.732;2023-04-03T06:44:03;3.50;67.69
72320;SHT30;60269;52.502;16.732;2023-04-03T06:47:36;3.78;65.65
72320;SHT30;60269;52.502;16.732;2023-04-03T06:51:26;3.71;66.39
72320;SHT30;60269;52.502;16.732;2023-04-03T06:54:58;3.93;64.69
72320;SHT30;60269;52.502;16.732;2023-04-03T06:58:31;3.93;63.88
72320;SHT30;60269;52.502;16.732;2023-04-03T07:02:04;3.99;62.51
72320;SHT30;60269;52.502;16.732;2023-04-03T07:05:36;4.13;64.62
72320;SHT30;60269;52.502;16.732;2023-04-03T07:09:09;4.47;61.87
72320;SHT30;60269;52.502;16.732;2023-04-03T07:12:42;4.51;61.90
72320;SHT30;60269;52.502;16.732;2023-04-03T07:16:14;4.62;60.67
72320;SHT30;60269;52.502;16.732;2023-04-03T07:19:47;4.62;60.68
72320;SHT30;60269;52.502;16.732;2023-04-03T07:23:19;4.79;58.74
72320;SHT30;60269;52.502;16.732;2023-04-03T07:26:54;4.85;59.03
72320;SHT30;60269;52.502;16.732;2023-04-03T07:30:26;4.85;58.58
72320;SHT30;60269;52.502;16.732;2023-04-03T07:33:58;5.23;56.55
72320;SHT30;60269;52.502;16.732;2023-04-03T07:37:31;5.70;55.67
72320;SHT30;60269;52.502;16.732;2023-04-03T07:41:04;6.16;53.00
72320;SHT30;60269;52.502;16.732;2023-04-03T07:44:36;6.36;52.76
72320;SHT30;60269;52.502;16.732;2023-04-03T07:48:09;5.64;51.51
72320;SHT30;60269;52.502;16.732;2023-04-03T07:51:41;6.44;51.30
72320;SHT30;60269;52.502;16.732;2023-04-03T07:55:14;7.52;45.72
72320;SHT30;60269;52.502;16.732;2023-04-03T07:58:46;8.20;46.02
72320;SHT30;60269;52.502;16.732;2023-04-03T08:02:18;8.66;41.40
72320;SHT30;60269;52.502;16.732;2023-04-03T08:05:50;8.22;41.68
72320;SHT30;60269;52.502;16.732;2023-04-03T08:09:22;8.28;41.31
72320;SHT30;60269;52.502;16.732;2023-04-03T08:12:54;7.25;43.93
72320;SHT30;60269;52.502;16.732;2023-04-03T08:16:26;6.93;45.35
72320;SHT30;60269;52.502;16.732;2023-04-03T08:19:59;6.29;45.71
72320;SHT30;60269;52.502;16.732;2023-04-03T08:23:30;6.97;44.45
72320;SHT30;60269;52.502;16.732;2023-04-03T08:27:03;8.28;43.26
72320;SHT30;60269;52.502;16.732;2023-04-03T08:30:35;8.25;42.45
72320;SHT30;60269;52.502;16.732;2023-04-03T08:34:08;8.12;42.83
72320;SHT30;60269;52.502;16.732;2023-04-03T08:37:40;7.39;44.50
72320;SHT30;60269;52.502;16.732;2023-04-03T08:41:38;7.16;45.35
72320;SHT30;60269;52.502;16.732;2023-04-03T08:45:19;6.94;45.68
72320;SHT30;60269;52.502;16.732;2023-04-03T08:48:53;8.32;43.54
72320;SHT30;60269;52.502;16.732;2023-04-03T08:52:42;9.63;39.17
72320;SHT30;60269;52.502;16.732;2023-04-03T08:56:18;8.60;41.70
72320;SHT30;60269;52.502;16.732;2023-04-03T08:59:51;7.80;40.46
72320;SHT30;60269;52.502;16.732;2023-04-03T09:03:28;7.93;39.63
72320;SHT30;60269;52.502;16.732;2023-04-03T09:07:31;8.34;40.01
72320;SHT30;60269;52.502;16.732;2023-04-03T09:18:35;10.44;35.37
72320;SHT30;60269;52.502;16.732;2023-04-03T09:22:24;10.40;34.50
72320;SHT30;60269;52.502;16.732;2023-04-03T09:26:07;10.96;33.59
72320;SHT30;60269;52.502;16.732;2023-04-03T09:29:43;10.82;34.23
72320;SHT30;60269;52.502;16.732;2023-04-03T09:33:17;10.93;35.22
72320;SHT30;60269;52.502;16.732;2023-04-03T09:36:55;11.34;34.32
72320;SHT30;60269;52.502;16.732;2023-04-03T09:40:37;11.53;34.88
72320;SHT30;60269;52.502;16.732;2023-04-03T09:44:27;11.88;33.37
72320;SHT30;60269;52.502;16.732;2023-04-03T09:51:47;10.34;34.01
72320;SHT30;60269;52.502;16.732;2023-04-03T09:55:21;10.23;33.50
72320;SHT30;60269;52.502;16.732;2023-04-03T10:02:38;10.43;34.90
72320;SHT30;60269;52.502;16.732;2023-04-03T10:06:23;9.45;37.30
72320;SHT30;60269;52.502;16.732;2023-04-03T10:10:01;8.69;38.75
72320;SHT30;60269;52.502;16.732;2023-04-03T10:13:33;8.66;38.65
72320;SHT30;60269;52.502;16.732;2023-04-03T10:21:48;9.92;37.22
72320;SHT30;60269;52.502;16.732;2023-04-03T10:25:37;9.26;37.83
72320;SHT30;60269;52.502;16.732;2023-04-03T10:36:56;11.10;36.37
72320;SHT30;60269;52.502;16.732;2023-04-03T10:40:37;11.16;34.93
72320;SHT30;60269;52.502;16.732;2023-04-03T10:51:48;12.18;31.17
72320;SHT30;60269;52.502;16.732;2023-04-03T10:59:15;10.67;34.97
72320;SHT30;60269;52.502;16.732;2023-04-03T11:02:56;9.75;37.32
72320;SHT30;60269;52.502;16.732;2023-04-03T11:06:39;9.90;35.45
72320;SHT30;60269;52.502;16.732;2023-04-03T11:10:26;11.77;34.44
72320;SHT30;60269;52.502;16.732;2023-04-03T11:14:38;10.88;35.50
72320;SHT30;60269;52.502;16.732;2023-04-03T11:18:18;10.61;33.18
72320;SHT30;60269;52.502;16.732;2023-04-03T11:21:57;9.99;35.31
72320;SHT30;60269;52.502;16.732;2023-04-03T11:25:33;9.27;36.70
72320;SHT30;60269;52.502;16.732;2023-04-03T11:29:19;9.03;36.15
72320;SHT30;60269;52.502;16.732;2023-04-03T11:37:55;12.19;31.92
72320;SHT30;60269;52.502;16.732;2023-04-03T11:41:29;10.75;34.22
72320;SHT30;60269;52.502;16.732;2023-04-03T11:48:59;8.77;37.71
72320;SHT30;60269;52.502;16.732;2023-04-03T11:59:59;9.51;36.55
72320;SHT30;60269;52.502;16.732;2023-04-03T12:03:57;8.31;38.88
72320;SHT30;60269;52.502;16.732;2023-04-03T12:07:29;10.30;36.64
72320;SHT30;60269;52.502;16.732;2023-04-03T12:14:43;11.15;33.02
72320;SHT30;60269;52.502;16.732;2023-04-03T12:18:43;10.06;34.86
72320;SHT30;60269;52.502;16.732;2023-04-03T12:22:18;11.99;32.81
72320;SHT30;60269;52.502;16.732;2023-04-03T12:26:00;11.88;32.49
72320;SHT30;60269;52.502;16.732;2023-04-03T12:29:38;10.36;34.52
72320;SHT30;60269;52.502;16.732;2023-04-03T12:33:38;10.40;34.03
72320;SHT30;60269;52.502;16.732;2023-04-03T12:41:36;13.63;29.46
72320;SHT30;60269;52.502;16.732;2023-04-03T12:45:23;15.07;27.39
72320;SHT30;60269;52.502;16.732;2023-04-03T12:48:58;12.47;29.99
72320;SHT30;60269;52.502;16.732;2023-04-03T12:52:38;11.29;32.62
72320;SHT30;60269;52.502;16.732;2023-04-03T12:59:55;10.07;33.86
72320;SHT30;60269;52.502;16.732;2023-04-03T13:03:29;11.12;31.33
72320;SHT30;60269;52.502;16.732;2023-04-03T13:07:01;10.81;31.80
72320;SHT30;60269;52.502;16.732;2023-04-03T13:10:55;10.37;33.27
72320;SHT30;60269;52.502;16.732;2023-04-03T13:14:29;9.89;34.73
72320;SHT30;60269;52.502;16.732;2023-04-03T13:18:02;9.27;35.34
72320;SHT30;60269;52.502;16.732;2023-04-03T13:21:34;9.93;35.47
72320;SHT30;60269;52.502;16.732;2023-04-03T13:25:11;10.91;34.11
72320;SHT30;60269;52.502;16.732;2023-04-03T13:28:45;9.28;36.13
72320;SHT30;60269;52.502;16.732;2023-04-03T13:32:23;8.50;40.13
72320;SHT30;60269;52.502;16.732;2023-04-03T13:36:03;8.50;39.20
72320;SHT30;60269;52.502;16.732;2023-04-03T13:39:39;8.44;38.75
72320;SHT30;60269;52.502;16.732;2023-04-03T13:43:25;8.18;38.26
72320;SHT30;60269;52.502;16.732;2023-04-03T13:47:14;8.70;37.19
72320;SHT30;60269;52.502;16.732;2023-04-03T13:51:03;11.03;34.01
72320;SHT30;60269;52.502;16.732;2023-04-03T13:54:38;12.08;31.69
72320;SHT30;60269;52.502;16.732;2023-04-03T14:01:47;9.32;37.42
72320;SHT30;60269;52.502;16.732;2023-04-03T14:05:21;8.48;38.52
72320;SHT30;60269;52.502;16.732;2023-04-03T14:08:55;7.84;38.88
72320;SHT30;60269;52.502;16.732;2023-04-03T14:12:36;7.32;39.44
72320;SHT30;60269;52.502;16.732;2023-04-03T14:16:20;8.11;39.25
72320;SHT30;60269;52.502;16.732;2023-04-03T14:19:55;11.29;32.56
72320;SHT30;60269;52.502;16.732;2023-04-03T14:23:28;11.61;33.07
72320;SHT30;60269;52.502;16.732;2023-04-03T14:27:00;9.68;34.73
72320;SHT30;60269;52.502;16.732;2023-04-03T14:30:33;8.72;38.23
72320;SHT30;60269;52.502;16.732;2023-04-03T14:34:11;8.04;38.51
72320;SHT30;60269;52.502;16.732;2023-04-03T14:37:44;7.90;40.60
72320;SHT30;60269;52.502;16.732;2023-04-03T14:41:19;7.58;38.89
72320;SHT30;60269;52.502;16.732;2023-04-03T14:44:52;7.25;40.10
72320;SHT30;60269;52.502;16.732;2023-04-03T14:48:27;9.74;35.41
72320;SHT30;60269;52.502;16.732;2023-04-03T14:52:00;11.41;31.86
72320;SHT30;60269;52.502;16.732;2023-04-03T14:55:32;12.66;28.31
72320;SHT30;60269;52.502;16.732;2023-04-03T14:59:09;9.96;32.67
72320;SHT30;60269;52.502;16.732;2023-04-03T15:02:42;8.29;35.19
72320;SHT30;60269;52.502;16.732;2023-04-03T15:06:15;7.29;37.28
72320;SHT30;60269;52.502;16.732;2023-04-03T15:09:47;8.68;35.77
72320;SHT30;60269;52.502;16.732;2023-04-03T15:13:19;10.41;33.28
72320;SHT30;60269;52.502;16.732;2023-04-03T15:16:52;11.18;32.43
72320;SHT30;60269;52.502;16.732;2023-04-03T15:20:26;11.74;31.99
72320;SHT30;60269;52.502;16.732;2023-04-03T15:23:59;9.56;34.66
72320;SHT30;60269;52.502;16.732;2023-04-03T15:27:33;8.22;36.34
72320;SHT30;60269;52.502;16.732;2023-04-03T15:31:05;7.32;37.55
72320;SHT30;60269;52.502;16.732;2023-04-03T15:35:09;6.94;39.85
72320;SHT30;60269;52.502;16.732;2023-04-03T15:38:41;6.53;38.60
72320;SHT30;60269;52.502;16.732;2023-04-03T15:42:13;6.64;39.42
72320;SHT30;60269;52.502;16.732;2023-04-03T15:45:49;6.32;40.52
72320;SHT30;60269;52.502;16.732;2023-04-03T15:49:22;5.98;40.69
72320;SHT30;60269;52.502;16.732;2023-04-03T15:52:54;5.63;41.45
72320;SHT30;60269;52.502;16.732;2023-04-03T15:56:39;5.61;41.75
72320;SHT30;60269;52.502;16.732;2023-04-03T16:00:44;5.36;41.34
72320;SHT30;60269;52.502;16.732;2023-04-03T16:04:17;5.19;41.87
72320;SHT30;60269;52.502;16.732;2023-04-03T16:07:51;5.15;41.71
72320;SHT30;60269;52.502;16.732;2023-04-03T16:11:24;5.13;41.86
72320;SHT30;60269;52.502;16.732;2023-04-03T16:14:56;5.11;42.46
72320;SHT30;60269;52.502;16.732;2023-04-03T16:18:29;5.09;42.45
72320;SHT30;60269;52.502;16.732;2023-04-03T16:22:01;4.93;42.81
72320;SHT30;60269;52.502;16.732;2023-04-03T16:25:33;4.87;44.62
72320;SHT30;60269;52.502;16.732;2023-04-03T16:29:05;4.79;44.90
72320;SHT30;60269;52.502;16.732;2023-04-03T16:32:38;4.74;44.00
72320;SHT30;60269;52.502;16.732;2023-04-03T16:36:10;4.64;45.03
72320;SHT30;60269;52.502;16.732;2023-04-03T16:39:45;4.60;45.84
72320;SHT30;60269;52.502;16.732;2023-04-03T16:43:16;4.56;46.48
72320;SHT30;60269;52.502;16.732;2023-04-03T16:46:49;4.61;46.85
72320;SHT30;60269;52.502;16.732;2023-04-03T16:50:21;4.46;46.52
72320;SHT30;60269;52.502;16.732;2023-04-03T16:53:53;4.36;47.08
72320;SHT30;60269;52.502;16.732;2023-04-03T16:57:25;4.14;47.17
72320;SHT30;60269;52.502;16.732;2023-04-03T17:00:57;3.82;49.21
72320;SHT30;60269;52.502;16.732;2023-04-03T17:04:29;3.51;49.62
72320;SHT30;60269;52.502;16.732;2023-04-03T17:08:02;3.23;51.84
72320;SHT30;60269;52.502;16.732;2023-04-03T17:11:34;3.02;52.08
72320;SHT30;60269;52.502;16.732;2023-04-03T17:15:11;2.91;53.73
72320;SHT30;60269;52.502;16.732;2023-04-03T17:18:44;2.89;54.42
72320;SHT30;60269;52.502;16.732;2023-04-03T17:22:17;2.89;54.98
72320;SHT30;60269;52.502;16.732;2023-04-03T17:25:49;2.93;55.18
72320;SHT30;60269;52.502;16.732;2023-04-03T17:29:21;2.95;55.41
72320;SHT30;60269;52.502;16.732;2023-04-03T17:32:53;3.04;55.60
72320;SHT30;60269;52.502;16.732;2023-04-03T17:36:27;3.14;55.92
72320;SHT30;60269;52.502;16.732;2023-04-03T17:39:59;3.14;56.12
72320;SHT30;60269;52.502;16.732;2023-04-03T17:43:32;3.19;56.63
72320;SHT30;60269;52.502;16.732;2023-04-03T17:47:04;3.16;56.89
72320;SHT30;60269;52.502;16.732;2023-04-03T17:50:36;3.17;57.21
72320;SHT30;60269;52.502;16.732;2023-04-03T17:54:08;3.16;58.06
72320;SHT30;60269;52.502;16.732;2023-04-03T17:57:41;3.20;58.01
72320;SHT30;60269;52.502;16.732;2023-04-03T18:01:19;3.23;57.66
72320;SHT30;60269;52.502;16.732;2023-04-03T18:04:52;3.21;58.36
72320;SHT30;60269;52.502;16.732;2023-04-03T18:08:24;3.17;58.90
72320;SHT30;60269;52.502;16.732;2023-04-03T18:11:57;3.16;59.01
72320;SHT30;60269;52.502;16.732;2023-04-03T18:15:31;3.19;59.21
72320;SHT30;60269;52.502;16.732;2023-04-03T18:19:03;3.24;58.74
72320;SHT30;60269;52.502;16.732;2023-04-03T18:22:38;3.24;59.46
72320;SHT30;60269;52.502;16.732;2023-04-03T18:26:13;3.12;60.51
72320;SHT30;60269;52.502;16.732;2023-04-03T18:29:53;3.16;60.71
72320;SHT30;60269;52.502;16.732;2023-04-03T18:33:27;3.10;61.35
72320;SHT30;60269;52.502;16.732;2023-04-03T18:37:00;3.10;61.67
72320;SHT30;60269;52.502;16.732;2023-04-03T18:40:34;3.00;62.42
72320;SHT30;60269;52.502;16.732;2023-04-03T18:44:10;2.99;62.86
72320;SHT30;60269;52.502;16.732;2023-04-03T18:47:43;2.95;63.69
72320;SHT30;60269;52.502;16.732;2023-04-03T18:51:15;2.91;63.94
72320;SHT30;60269;52.502;16.732;2023-04-03T18:54:47;2.78;64.20
72320;SHT30;60269;52.502;16.732;2023-04-03T18:58:19;2.72;63.99
72320;SHT30;60269;52.502;16.732;2023-04-03T19:01:52;2.59;64.52
72320;SHT30;60269;52.502;16.732;2023-04-03T19:05:24;2.45;65.16
72320;SHT30;60269;52.502;16.732;2023-04-03T19:08:58;2.31;65.19
72320;SHT30;60269;52.502;16.732;2023-04-03T19:12:30;2.17;65.50
72320;SHT30;60269;52.502;16.732;2023-04-03T19:16:02;2.07;65.80
72320;SHT30;60269;52.502;16.732;2023-04-03T19:19:34;1.94;66.99
72320;SHT30;60269;52.502;16.732;2023-04-03T19:23:07;1.70;67.33
72320;SHT30;60269;52.502;16.732;2023-04-03T19:26:40;1.55;68.02
72320;SHT30;60269;52.502;16.732;2023-04-03T19:30:13;1.34;67.96
72320;SHT30;60269;52.502;16.732;2023-04-03T19:33:45;1.21;68.52
72320;SHT30;60269;52.502;16.732;2023-04-03T19:37:18;1.07;69.03
72320;SHT30;60269;52.502;16.732;2023-04-03T19:40:50;0.97;69.88
72320;SHT30;60269;52.502;16.732;2023-04-03T19:44:22;0.83;70.30
72320;SHT30;60269;52.502;16.732;2023-04-03T19:47:54;0.69;71.24
72320;SHT30;60269;52.502;16.732;2023-04-03T19:51:26;0.58;71.81
72320;SHT30;60269;52.502;16.732;2023-04-03T19:54:58;0.25;73.19
72320;SHT30;60269;52.502;16.732;2023-04-03T19:58:30;-0.07;74.80
72320;SHT30;60269;52.502;16.732;2023-04-03T20:02:02;-0.27;75.82
72320;SHT30;60269;52.502;16.732;2023-04-03T20:05:34;-0.41;76.51
72320;SHT30;60269;52.502;16.732;2023-04-03T20:09:06;-0.56;77.26
72320;SHT30;60269;52.502;16.732;2023-04-03T20:12:38;-0.78;78.25
72320;SHT30;60269;52.502;16.732;2023-04-03T20:16:10;-1.00;79.33
72320;SHT30;60269;52.502;16.732;2023-04-03T20:19:43;-0.99;79.86
72320;SHT30;60269;52.502;16.732;2023-04-03T20:23:16;-1.03;80.39
72320;SHT30;60269;52.502;16.732;2023-04-03T20:26:48;-0.98;80.30
72320;SHT30;60269;52.502;16.732;2023-04-03T20:30:20;-0.77;79.72
72320;SHT30;60269;52.502;16.732;2023-04-03T20:33:53;-0.50;79.02
72320;SHT30;60269;52.502;16.732;2023-04-03T20:37:25;-0.27;78.17
72320;SHT30;60269;52.502;16.732;2023-04-03T20:40:58;-0.07;77.35
72320;SHT30;60269;52.502;16.732;2023-04-03T20:44:31;0.17;76.00
72320;SHT30;60269;52.502;16.732;2023-04-03T20:48:04;0.38;74.66
72320;SHT30;60269;52.502;16.732;2023-04-03T20:51:36;0.55;74.19
72320;SHT30;60269;52.502;16.732;2023-04-03T20:55:09;0.63;73.82
72320;SHT30;60269;52.502;16.732;2023-04-03T20:58:41;0.60;74.08
72320;SHT30;60269;52.502;16.732;2023-04-03T21:02:14;0.67;74.30
72320;SHT30;60269;52.502;16.732;2023-04-03T21:05:46;0.69;74.88
72320;SHT30;60269;52.502;16.732;2023-04-03T21:21:39;0.29;77.07
72320;SHT30;60269;52.502;16.732;2023-04-03T21:25:11;0.07;78.08
72320;SHT30;60269;52.502;16.732;2023-04-03T21:28:43;-0.12;78.63
72320;SHT30;60269;52.502;16.732;2023-04-03T21:32:15;-0.36;79.59
72320;SHT30;60269;52.502;16.732;2023-04-03T21:35:47;-0.62;80.59
72320;SHT30;60269;52.502;16.732;2023-04-03T21:39:19;-0.87;80.72
72320;SHT30;60269;52.502;16.732;2023-04-03T21:42:53;-1.03;80.75
72320;SHT30;60269;52.502;16.732;2023-04-03T21:46:25;-1.20;80.93
72320;SHT30;60269;52.502;16.732;2023-04-03T21:49:58;-1.30;81.10
72320;SHT30;60269;52.502;16.732;2023-04-03T21:53:30;-1.39;81.50
72320;SHT30;60269;52.502;16.732;2023-04-03T21:57:04;-1.46;82.15
72320;SHT30;60269;52.502;16.732;2023-04-03T22:00:36;-1.58;82.67
72320;SHT30;60269;52.502;16.732;2023-04-03T22:04:10;-1.61;82.96
72320;SHT30;60269;52.502;16.732;2023-04-03T22:07:45;-1.70;83.01
72320;SHT30;60269;52.502;16.732;2023-04-03T22:11:18;-1.78;83.13
72320;SHT30;60269;52.502;16.732;2023-04-03T22:14:53;-1.81;83.17
72320;SHT30;60269;52.502;16.732;2023-04-03T22:18:26;-1.94;83.55
72320;SHT30;60269;52.502;16.732;2023-04-03T22:21:59;-2.09;84.23
72320;SHT30;60269;52.502;16.732;2023-04-03T22:25:34;-2.10;84.41
72320;SHT30;60269;52.502;16.732;2023-04-03T22:29:06;-2.28;85.30
72320;SHT30;60269;52.502;16.732;2023-04-03T22:32:38;-2.40;86.23
72320;SHT30;60269;52.502;16.732;2023-04-03T22:36:11;-2.64;87.12
72320;SHT30;60269;52.502;16.732;2023-04-03T22:39:44;-2.80;88.02
72320;SHT30;60269;52.502;16.732;2023-04-03T22:43:16;-2.80;88.54
72320;SHT30;60269;52.502;16.732;2023-04-03T22:46:48;-2.81;88.10
72320;SHT30;60269;52.502;16.732;2023-04-03T22:50:20;-2.85;88.55
72320;SHT30;60269;52.502;16.732;2023-04-03T22:53:52;-2.98;88.92
72320;SHT30;60269;52.502;16.732;2023-04-03T22:57:25;-3.01;88.73
72320;SHT30;60269;52.502;16.732;2023-04-03T23:04:37;-3.09;89.00
72320;SHT30;60269;52.502;16.732;2023-04-03T23:08:09;-3.19;89.27
72320;SHT30;60269;52.502;16.732;2023-04-03T23:11:42;-3.22;89.41
72320;SHT30;60269;52.502;16.732;2023-04-03T23:15:14;-3.33;89.88
72320;SHT30;60269;52.502;16.732;2023-04-03T23:18:48;-3.22;89.13
72320;SHT30;60269;52.502;16.732;2023-04-03T23:22:20;-3.25;88.59
72320;SHT30;60269;52.502;16.732;2023-04-03T23:25:57;-3.47;89.42
72320;SHT30;60269;52.502;16.732;2023-04-03T23:29:30;-3.62;90.40
72320;SHT30;60269;52.502;16.732;2023-04-03T23:33:04;-3.54;90.49
72320;SHT30;60269;52.502;16.732;2023-04-03T23:36:37;-3.57;90.22
72320;SHT30;60269;52.502;16.732;2023-04-03T23:40:09;-3.43;89.48
72320;SHT30;60269;52.502;16.732;2023-04-03T23:43:41;-3.53;89.49
72320;SHT30;60269;52.502;16.732;2023-04-03T23:47:14;-3.49;89.59
72320;SHT30;60269;52.502;16.732;2023-04-03T23:50:45;-3.54;89.39
72320;SHT30;60269;52.502;16.732;2023-04-03T23:54:17;-3.53;89.74